Airfield :
LOGIN :

Register | Disclaimer

   EN    FR    IT 

 










Legend :    VFR   Marginal VFR   IFR   Intensive IFR   Very Intensive IFR
Visi :
Ceiling :
>= 8 km
>= 3000ft
5 to 8 km
1000 to 3000 ft
1500m to 5 km
500 to 1000 ft
800 to 1500m
200 to 500 ft
< 800m
< 200 ft
Symbols :   Thunderstorms  Fog  Heavy snow  Heavy precipitations  Wind > 20 kt
SIGMETs :     Misc.  Thunderstorms  Icing  Turbulence  Mountain Waves  Volcanic Ashes







- Airport Elevation : 1079 ft


ETIK - Illesheim Air Base

CURRENT METAR :
  • 132256Z AUTO 07006KT 9999 OVC030 M01/M04 A3006 RMK AO2 SLP201 T10081040 400131044 $

EXPIRED METARs :
  • 132156Z AUTO 06008KT 9999 OVC028 M01/M04 A3005 RMK AO2 SLP198 T10071037 $
  • 132056Z AUTO 07006KT 9999 OVC028 M01/M04 A3005 RMK AO2 SLP199 T10081037 51004 $

TAF TAF ETIK
Valid from the 13 at 22:00 until the 15 at 04:00 UTC


132202Z 1322/1504 06009KT 9999 BKN030 QNH3001INS
TEMPO 1406/1407 BKN020 TX00/1413Z TNM03/1406Z
No reported NOTAMs for that airfield.



MET'MAP, your aeronautical weather chart ! - Copyright ORBIFLY December 2007 - Disclaimer

ORBIFLY MET'MAP TEAM :

Programming & Development : Alexandra Zaïnal
Concept & Development : Baudouin d'Aumeries
Co-Development & Prog : Marc-Olivier Méhu
Technical & hardware support : Manuel Goepfert

Contact : metmap@orbifly.com




SOURCES & CREDITS :

   NOAA